createdAt,value
2022-09-27T00:05:11.074Z,9.88
2022-09-27T00:12:03.248Z,9.79
2022-09-27T00:18:50.814Z,9.64
2022-09-27T00:25:33.739Z,9.54
2022-09-27T00:32:19.202Z,9.46
2022-09-27T00:39:01.992Z,9.38
2022-09-27T00:45:47.681Z,9.32
2022-09-27T00:52:30.872Z,9.23
2022-09-27T00:59:14.584Z,9.13
2022-09-27T01:05:57.410Z,9.13
2022-09-27T01:13:04.211Z,9.10
2022-09-27T01:19:53.118Z,9.03
2022-09-27T01:26:38.128Z,9.07
2022-09-27T01:33:33.735Z,9.04
2022-09-27T01:40:41.106Z,8.92
2022-09-27T01:47:49.566Z,8.76
2022-09-27T01:54:34.422Z,8.65
2022-09-27T02:01:17.502Z,8.35
2022-09-27T02:08:21.403Z,8.22
2022-09-27T02:15:16.814Z,8.13
2022-09-27T02:21:59.457Z,8.01
2022-09-27T02:28:42.727Z,7.98
2022-09-27T02:35:25.554Z,7.87
2022-09-27T02:42:17.301Z,7.71
2022-09-27T02:49:07.675Z,7.64
2022-09-27T02:55:53.573Z,7.68
2022-09-27T03:02:45.458Z,7.79
2022-09-27T03:09:34.404Z,7.95
2022-09-27T03:16:17.451Z,8.03
2022-09-27T03:23:06.045Z,7.90
2022-09-27T03:29:49.310Z,7.95
2022-09-27T03:36:32.002Z,8.00
2022-09-27T03:43:14.920Z,7.95
2022-09-27T03:49:59.868Z,7.86
2022-09-27T03:56:42.596Z,7.92
2022-09-27T04:03:25.778Z,7.79
2022-09-27T04:10:06.890Z,7.88
2022-09-27T04:16:49.985Z,7.99
2022-09-27T04:23:35.806Z,8.05
2022-09-27T04:30:18.388Z,8.16
2022-09-27T04:37:01.031Z,8.26
2022-09-27T04:43:43.564Z,8.32
2022-09-27T04:50:26.747Z,8.43
2022-09-27T04:57:09.774Z,8.54
2022-09-27T05:03:52.635Z,8.62
2022-09-27T05:10:35.668Z,8.62
2022-09-27T05:17:18.405Z,8.69
2022-09-27T05:24:04.287Z,8.88
2022-09-27T05:30:47.768Z,9.11
2022-09-27T05:37:30.628Z,9.25
2022-09-27T05:44:13.592Z,9.49
2022-09-27T05:50:56.627Z,9.74
2022-09-27T05:57:40.445Z,9.90
2022-09-27T06:04:24.367Z,9.98
2022-09-27T06:11:07.490Z,10.19
2022-09-27T06:17:50.717Z,10.42
2022-09-27T06:24:33.498Z,10.59
2022-09-27T06:31:16.386Z,10.73
2022-09-27T06:38:05.746Z,10.88
2022-09-27T06:44:29.806Z,11.01
2022-09-27T06:51:11.319Z,11.23
2022-09-27T06:57:53.391Z,11.31
2022-09-27T07:04:36.594Z,11.56
2022-09-27T07:11:33.044Z,12.35
2022-09-27T07:18:33.737Z,13.21
2022-09-27T07:25:26.072Z,14.23
2022-09-27T07:32:10.763Z,15.14
2022-09-27T07:38:55.959Z,15.85
2022-09-27T07:53:22.464Z,16.62
2022-09-27T08:14:54.284Z,16.39
2022-09-27T08:21:38.535Z,16.79
2022-09-27T08:28:36.907Z,16.72
2022-09-27T08:35:00.155Z,16.71
2022-09-27T08:41:58.095Z,16.80
2022-09-27T08:48:55.198Z,16.83
2022-09-27T08:55:38.373Z,16.95
2022-09-27T09:02:21.567Z,16.96
2022-09-27T09:09:25.585Z,16.98
2022-09-27T09:15:32.184Z,17.09
2022-09-27T09:22:24.630Z,17.10
2022-09-27T09:29:02.741Z,17.12
2022-09-27T09:35:28.969Z,17.19
2022-09-27T09:42:15.047Z,17.30
2022-09-27T09:49:10.416Z,17.43
2022-09-27T09:54:52.177Z,17.61
2022-09-27T10:00:35.202Z,17.81
2022-09-27T10:06:25.714Z,17.94
2022-09-27T10:12:29.296Z,17.89
2022-09-27T10:18:07.014Z,17.63
2022-09-27T10:23:40.223Z,17.53
2022-09-27T10:29:50.609Z,17.51
2022-09-27T10:35:54.305Z,17.68
2022-09-27T10:41:56.958Z,17.95
2022-09-27T10:47:38.128Z,18.17
2022-09-27T10:54:12.902Z,18.38
2022-09-27T11:00:56.056Z,18.53
2022-09-27T11:07:57.795Z,18.62
2022-09-27T11:14:43.753Z,18.78
2022-09-27T11:20:53.641Z,18.88
2022-09-27T11:26:42.432Z,18.89
2022-09-27T11:32:44.732Z,18.79
2022-09-27T11:39:36.747Z,18.61
2022-09-27T11:46:16.740Z,18.41
2022-09-27T12:13:44.929Z,17.58
2022-09-27T12:20:34.845Z,17.51
2022-09-27T12:27:20.892Z,17.44
2022-09-27T12:34:19.575Z,17.37
2022-09-27T12:40:52.424Z,17.45
2022-09-27T12:47:42.784Z,17.85
2022-09-27T12:54:31.555Z,17.90
2022-09-27T13:01:23.017Z,17.54
2022-09-27T13:08:19.857Z,17.12
2022-09-27T13:15:03.012Z,16.73
2022-09-27T13:20:57.850Z,16.47
2022-09-27T13:27:44.478Z,16.27
2022-09-27T13:34:32.622Z,16.15
2022-09-27T13:41:21.752Z,16.09
2022-09-27T13:47:55.132Z,16.01
2022-09-27T13:54:38.940Z,15.80
2022-09-27T14:01:28.723Z,15.60
2022-09-27T14:08:14.434Z,15.28
2022-09-27T14:15:00.824Z,14.94
2022-09-27T14:21:53.337Z,14.72
2022-09-27T14:28:44.825Z,14.13
2022-09-27T14:35:33.646Z,13.35
2022-09-27T14:42:16.688Z,12.67
2022-09-27T14:48:54.645Z,12.11
2022-09-27T14:55:38.451Z,11.76
2022-09-27T15:02:05.881Z,11.65
2022-09-27T15:08:38.796Z,11.66
2022-09-27T15:15:21.530Z,11.74
2022-09-27T15:22:07.597Z,11.78
2022-09-27T15:28:35.919Z,11.88
2022-09-27T15:35:19.258Z,11.97
2022-09-27T15:42:06.688Z,11.94
2022-09-27T15:48:42.810Z,11.89
2022-09-27T15:55:05.788Z,11.81
2022-09-27T16:01:37.946Z,11.81
2022-09-27T16:08:22.699Z,11.89
2022-09-27T16:15:07.645Z,11.93
2022-09-27T16:21:54.753Z,11.84
2022-09-27T16:28:40.812Z,11.83
2022-09-27T16:35:26.147Z,11.84
2022-09-27T16:42:09.796Z,11.91
2022-09-27T16:48:53.443Z,11.92
2022-09-27T16:55:40.432Z,11.91
2022-09-27T17:02:23.685Z,11.95
2022-09-27T17:09:06.662Z,11.99
2022-09-27T17:15:49.488Z,11.94
2022-09-27T17:22:33.032Z,11.90
2022-09-27T17:29:20.614Z,11.82
2022-09-27T17:36:04.900Z,11.78
2022-09-27T17:42:50.142Z,11.75
2022-09-27T17:49:31.685Z,11.79
2022-09-27T17:56:14.608Z,11.78
2022-09-27T18:02:58.864Z,11.70
2022-09-27T18:09:42.246Z,11.66
2022-09-27T18:16:25.895Z,11.58
2022-09-27T18:23:09.975Z,11.48
2022-09-27T18:29:53.373Z,11.46
2022-09-27T18:36:36.194Z,11.46
2022-09-27T18:43:19.240Z,11.43
2022-09-27T18:50:02.128Z,11.48
2022-09-27T18:56:45.400Z,11.50
2022-09-27T19:03:28.218Z,11.48
2022-09-27T19:10:10.864Z,11.51
2022-09-27T19:16:38.067Z,11.52
2022-09-27T19:23:21.735Z,11.51
2022-09-27T19:30:04.849Z,11.46
2022-09-27T19:36:32.152Z,11.35
2022-09-27T19:43:14.254Z,11.31
2022-09-27T19:49:29.222Z,11.35
2022-09-27T19:55:15.188Z,11.30
2022-09-27T20:01:19.673Z,11.29
2022-09-27T20:07:29.530Z,11.30
2022-09-27T20:13:32.524Z,11.31
2022-09-27T20:19:40.213Z,11.29
2022-09-27T20:26:07.878Z,11.21
2022-09-27T20:32:28.125Z,11.12
2022-09-27T20:38:32.408Z,11.07
2022-09-27T20:44:39.762Z,11.05
2022-09-27T20:51:04.659Z,11.03
2022-09-27T20:57:56.537Z,10.96
2022-09-27T21:04:22.907Z,10.89
2022-09-27T21:10:21.342Z,10.87
2022-09-27T21:16:44.643Z,10.88
2022-09-27T21:23:24.096Z,10.89
2022-09-27T21:30:07.306Z,10.86
2022-09-27T21:36:52.371Z,10.82
2022-09-27T21:43:35.159Z,10.76
2022-09-27T21:50:18.336Z,10.75
2022-09-27T21:57:01.474Z,10.70
2022-09-27T22:03:43.919Z,10.58
2022-09-27T22:10:26.721Z,10.48
2022-09-27T22:17:09.369Z,10.38
2022-09-27T22:23:51.518Z,10.29
2022-09-27T22:30:34.237Z,10.23
2022-09-27T22:37:16.827Z,10.16
2022-09-27T22:44:18.730Z,10.11
2022-09-27T22:51:12.973Z,10.14
2022-09-27T23:12:23.397Z,10.17
2022-09-27T23:38:42.952Z,10.22
2022-09-27T23:45:28.164Z,10.24
2022-09-27T23:52:12.564Z,10.22
2022-09-27T23:58:55.590Z,10.16
